createdAt,value
2022-11-25T00:01:57.634Z,4.70
2022-11-25T00:04:24.526Z,4.70
2022-11-25T00:06:51.631Z,4.70
2022-11-25T00:09:18.454Z,4.70
2022-11-25T00:11:45.308Z,4.70
2022-11-25T00:14:14.842Z,4.70
2022-11-25T00:16:47.739Z,4.70
2022-11-25T00:19:15.739Z,4.60
2022-11-25T00:21:42.873Z,4.70
2022-11-25T00:24:13.285Z,4.60
2022-11-25T00:26:40.336Z,4.60
2022-11-25T00:29:10.572Z,4.60
2022-11-25T00:31:39.346Z,4.60
2022-11-25T00:34:07.227Z,4.50
2022-11-25T00:36:36.918Z,4.50
2022-11-25T00:39:17.619Z,4.40
2022-11-25T00:42:04.828Z,4.30
2022-11-25T00:44:42.399Z,4.30
2022-11-25T00:47:18.475Z,4.20
2022-11-25T00:49:50.791Z,4.10
2022-11-25T00:52:24.208Z,4.20
2022-11-25T00:54:52.218Z,4.10
2022-11-25T00:57:22.009Z,4.10
2022-11-25T00:59:49.553Z,4.20
2022-11-25T01:02:18.234Z,4.10
2022-11-25T01:04:45.857Z,4.20
2022-11-25T01:07:15.649Z,4.20
2022-11-25T01:09:42.533Z,4.20
2022-11-25T01:12:09.312Z,4.20
2022-11-25T01:14:36.862Z,4.20
2022-11-25T01:17:03.958Z,4.20
2022-11-25T01:19:33.018Z,4.30
2022-11-25T01:22:00.358Z,4.20
2022-11-25T01:24:27.281Z,4.20
2022-11-25T01:26:55.848Z,4.20
2022-11-25T01:29:23.179Z,4.30
2022-11-25T01:31:50.692Z,4.20
2022-11-25T01:34:23.084Z,4.20
2022-11-25T01:36:50.237Z,4.20
2022-11-25T01:39:26.879Z,4.20
2022-11-25T01:41:57.995Z,4.30
2022-11-25T01:44:28.564Z,4.20
2022-11-25T01:47:01.856Z,4.20
2022-11-25T01:49:38.405Z,4.20
2022-11-25T01:52:32.820Z,4.20
2022-11-25T01:55:13.014Z,4.10
2022-11-25T01:58:01.383Z,4.20
2022-11-25T02:00:28.516Z,4.20
2022-11-25T02:02:56.050Z,4.10
2022-11-25T02:05:50.129Z,4.20
2022-11-25T02:08:18.801Z,4.10
2022-11-25T02:10:46.579Z,4.10
2022-11-25T02:13:13.627Z,4.10
2022-11-25T02:15:40.522Z,4.00
2022-11-25T02:18:07.791Z,4.00
2022-11-25T02:20:35.343Z,4.00
2022-11-25T02:23:17.607Z,4.00
2022-11-25T02:25:46.644Z,3.90
2022-11-25T02:28:25.441Z,4.00
2022-11-25T02:30:52.853Z,3.90
2022-11-25T02:33:20.697Z,3.90
2022-11-25T02:36:10.665Z,3.90
2022-11-25T02:38:42.448Z,4.00
2022-11-25T02:41:12.446Z,3.90
2022-11-25T02:43:39.704Z,4.00
2022-11-25T02:46:09.845Z,4.00
2022-11-25T02:51:28.776Z,4.00
2022-11-25T02:53:56.890Z,4.00
2022-11-25T02:56:27.857Z,4.00
2022-11-25T02:58:55.045Z,4.00
2022-11-25T03:01:24.760Z,4.10
2022-11-25T03:03:51.803Z,4.10
2022-11-25T03:06:21.951Z,4.10
2022-11-25T03:08:49.020Z,4.10
2022-11-25T03:11:16.158Z,4.10
2022-11-25T03:13:43.391Z,4.10
2022-11-25T03:16:10.479Z,4.10
2022-11-25T03:18:37.832Z,4.20
2022-11-25T03:21:04.792Z,4.20
2022-11-25T03:23:31.671Z,4.20
2022-11-25T03:25:58.586Z,4.20
2022-11-25T03:28:25.576Z,4.20
2022-11-25T03:30:52.490Z,4.30
2022-11-25T03:33:19.491Z,4.40
2022-11-25T03:35:48.404Z,4.40
2022-11-25T03:38:15.281Z,4.40
2022-11-25T03:40:42.461Z,4.50
2022-11-25T03:43:11.313Z,4.40
2022-11-25T03:45:40.427Z,4.50
2022-11-25T03:48:08.980Z,4.50
2022-11-25T03:50:37.328Z,4.50
2022-11-25T03:53:04.261Z,4.50
2022-11-25T03:55:31.194Z,4.50
2022-11-25T03:57:59.108Z,4.50
2022-11-25T04:00:26.516Z,4.50
2022-11-25T04:03:00.996Z,4.50
2022-11-25T04:05:30.722Z,4.50
2022-11-25T04:08:01.474Z,4.40
2022-11-25T04:10:33.008Z,4.50
2022-11-25T04:12:59.957Z,4.50
2022-11-25T04:15:34.231Z,4.60
2022-11-25T04:18:01.778Z,4.50
2022-11-25T04:20:31.436Z,4.50
2022-11-25T04:23:03.457Z,4.40
2022-11-25T04:25:32.028Z,4.40
2022-11-25T04:27:59.162Z,4.50
2022-11-25T04:30:32.157Z,4.40
2022-11-25T04:33:01.808Z,4.40
2022-11-25T04:35:28.957Z,4.40
2022-11-25T04:37:57.143Z,4.40
2022-11-25T04:40:25.542Z,4.40
2022-11-25T04:43:09.067Z,4.40
2022-11-25T04:48:29.311Z,4.30
2022-11-25T04:50:56.667Z,4.20
2022-11-25T04:53:24.102Z,4.20
2022-11-25T04:55:50.969Z,4.20
2022-11-25T04:58:39.317Z,4.10
2022-11-25T05:01:06.718Z,4.10
2022-11-25T05:03:34.492Z,4.10
2022-11-25T05:06:09.085Z,4.10
2022-11-25T05:08:37.848Z,3.90
2022-11-25T05:11:05.073Z,3.90
2022-11-25T05:13:32.630Z,4.00
2022-11-25T05:16:00.384Z,3.80
2022-11-25T05:18:27.786Z,3.80
2022-11-25T05:20:54.668Z,3.80
2022-11-25T05:23:22.417Z,3.80
2022-11-25T05:25:50.278Z,3.80
2022-11-25T05:28:31.205Z,3.80
2022-11-25T05:30:58.929Z,3.80
2022-11-25T05:33:26.714Z,3.80
2022-11-25T05:35:55.285Z,3.80
2022-11-25T05:38:23.068Z,3.70
2022-11-25T05:40:50.189Z,3.70
2022-11-25T05:43:18.241Z,3.80
2022-11-25T05:45:45.684Z,3.70
2022-11-25T05:48:13.975Z,3.80
2022-11-25T05:50:42.197Z,3.80
2022-11-25T05:53:17.446Z,3.80
2022-11-25T05:55:53.309Z,3.90
2022-11-25T05:58:29.899Z,4.00
2022-11-25T06:00:59.539Z,4.00
2022-11-25T06:03:30.386Z,4.10
2022-11-25T06:05:58.416Z,4.10
2022-11-25T06:08:26.260Z,4.10
2022-11-25T06:10:53.368Z,4.20
2022-11-25T06:13:20.608Z,4.20
2022-11-25T06:15:48.112Z,4.30
2022-11-25T06:18:19.047Z,4.30
2022-11-25T06:20:55.305Z,4.40
2022-11-25T06:23:22.404Z,4.40
2022-11-25T06:25:49.580Z,4.40
2022-11-25T06:28:16.466Z,4.40
2022-11-25T06:30:48.170Z,4.50
2022-11-25T06:33:22.127Z,4.50
2022-11-25T06:35:53.539Z,4.50
2022-11-25T06:38:20.440Z,4.50
2022-11-25T06:40:47.258Z,4.60
2022-11-25T06:43:14.148Z,4.60
2022-11-25T06:45:40.939Z,4.60
2022-11-25T06:48:07.689Z,4.60
2022-11-25T06:50:34.841Z,4.60
2022-11-25T06:53:02.369Z,4.50
2022-11-25T06:55:29.114Z,4.50
2022-11-25T06:58:08.373Z,4.50
2022-11-25T07:00:42.593Z,4.60
2022-11-25T07:03:09.468Z,4.60
2022-11-25T07:05:36.381Z,4.70
2022-11-25T07:08:03.278Z,4.70
2022-11-25T07:10:30.235Z,4.80
2022-11-25T07:12:57.506Z,4.80
2022-11-25T07:15:24.382Z,4.80
2022-11-25T07:17:51.184Z,4.90
2022-11-25T07:20:18.054Z,5.00
2022-11-25T07:22:44.966Z,5.00
2022-11-25T07:25:11.917Z,5.10
2022-11-25T07:27:38.708Z,5.10
2022-11-25T07:32:53.429Z,5.00
2022-11-25T07:35:20.324Z,5.10
2022-11-25T07:37:47.344Z,5.10
2022-11-25T07:40:14.229Z,5.00
2022-11-25T07:42:41.019Z,5.00
2022-11-25T07:45:10.098Z,5.00
2022-11-25T07:47:42.153Z,5.00
2022-11-25T07:50:09.335Z,5.00
2022-11-25T07:52:38.988Z,5.10
2022-11-25T07:55:06.562Z,5.10
2022-11-25T07:57:33.440Z,5.20
2022-11-25T08:00:00.554Z,5.20
2022-11-25T08:02:27.473Z,5.20
2022-11-25T08:04:54.606Z,5.20
2022-11-25T08:07:21.540Z,5.30
2022-11-25T08:09:48.587Z,5.40
2022-11-25T08:12:15.439Z,5.30
2022-11-25T08:14:42.278Z,5.40
2022-11-25T08:17:09.251Z,5.50
2022-11-25T08:19:36.837Z,5.40
2022-11-25T08:22:04.701Z,5.50
2022-11-25T08:24:31.511Z,5.60
2022-11-25T08:27:01.257Z,5.70
2022-11-25T08:29:28.192Z,5.80
2022-11-25T08:31:55.368Z,5.90
2022-11-25T08:34:24.321Z,6.00
2022-11-25T08:36:56.499Z,6.00
2022-11-25T08:42:10.390Z,6.10
2022-11-25T08:44:37.400Z,6.10
2022-11-25T08:47:04.421Z,6.10
2022-11-25T08:49:34.926Z,6.10
2022-11-25T08:52:06.049Z,6.10
2022-11-25T08:54:33.010Z,6.20
2022-11-25T08:57:00.732Z,6.20
2022-11-25T08:59:27.705Z,6.20
2022-11-25T09:01:56.064Z,6.30
2022-11-25T09:04:23.096Z,6.30
2022-11-25T09:06:50.118Z,6.30
2022-11-25T09:09:17.020Z,6.30
2022-11-25T09:11:43.960Z,6.40
2022-11-25T09:14:10.948Z,6.30
2022-11-25T09:16:37.817Z,6.40
2022-11-25T09:19:05.006Z,6.40
2022-11-25T09:21:31.836Z,6.50
2022-11-25T09:23:58.855Z,6.50
2022-11-25T09:26:28.706Z,6.50
2022-11-25T09:28:55.957Z,6.60
2022-11-25T09:31:24.032Z,6.60
2022-11-25T09:33:51.014Z,6.50
2022-11-25T09:36:19.470Z,6.60
2022-11-25T09:38:47.132Z,6.60
2022-11-25T09:41:46.292Z,6.70
2022-11-25T09:44:52.702Z,6.70
2022-11-25T09:47:39.302Z,6.80
2022-11-25T09:50:27.126Z,6.80
2022-11-25T09:53:30.446Z,6.80
2022-11-25T09:56:03.842Z,6.90
2022-11-25T09:58:35.525Z,7.00
2022-11-25T10:01:07.079Z,7.00
2022-11-25T10:03:46.453Z,7.00
2022-11-25T10:06:27.199Z,7.00
2022-11-25T10:09:01.027Z,7.10
2022-11-25T10:11:46.488Z,7.20
2022-11-25T10:14:19.460Z,7.20
2022-11-25T10:17:07.527Z,7.30
2022-11-25T10:20:02.786Z,7.40
2022-11-25T10:22:36.088Z,7.50
2022-11-25T10:25:13.969Z,7.60
2022-11-25T10:27:50.349Z,7.70
2022-11-25T10:30:21.887Z,7.70
2022-11-25T10:33:03.717Z,7.70
2022-11-25T10:35:33.378Z,7.80
2022-11-25T10:38:04.220Z,7.80
2022-11-25T10:40:31.092Z,8.00
2022-11-25T10:42:58.715Z,8.20
2022-11-25T10:45:32.058Z,8.20
2022-11-25T10:48:22.546Z,8.40
2022-11-25T10:51:28.839Z,8.40
2022-11-25T10:54:11.913Z,8.20
2022-11-25T10:56:49.535Z,8.20
2022-11-25T10:59:32.160Z,8.30
2022-11-25T11:02:29.372Z,8.30
2022-11-25T11:05:02.830Z,8.30
2022-11-25T11:07:33.317Z,8.40
2022-11-25T11:10:21.647Z,8.60
2022-11-25T11:12:59.586Z,8.70
2022-11-25T11:15:34.104Z,8.70
2022-11-25T11:18:14.760Z,8.70
2022-11-25T11:20:47.221Z,8.60
2022-11-25T11:23:14.774Z,8.60
2022-11-25T11:25:43.944Z,8.60
2022-11-25T11:28:36.884Z,8.60
2022-11-25T11:31:20.586Z,8.80
2022-11-25T11:33:47.439Z,8.80
2022-11-25T11:36:38.261Z,8.90
2022-11-25T11:39:32.479Z,8.90
2022-11-25T11:42:14.041Z,8.90
2022-11-25T11:45:09.824Z,9.00
2022-11-25T11:48:10.990Z,9.10
2022-11-25T11:50:43.597Z,9.20
2022-11-25T11:53:33.266Z,9.20
2022-11-25T11:59:23.437Z,9.30
2022-11-25T12:02:12.684Z,9.40
2022-11-25T12:04:51.167Z,9.40
2022-11-25T12:07:53.659Z,9.30
2022-11-25T12:10:41.517Z,9.20
2022-11-25T12:13:29.763Z,9.10
2022-11-25T12:16:07.912Z,9.10
2022-11-25T12:18:50.851Z,9.10
2022-11-25T12:21:42.008Z,9.20
2022-11-25T12:24:31.227Z,9.20
2022-11-25T12:27:03.371Z,9.30
2022-11-25T12:29:58.772Z,9.40
2022-11-25T12:32:38.017Z,9.50
2022-11-25T12:35:14.915Z,9.50
2022-11-25T12:37:50.534Z,9.60
2022-11-25T12:40:24.784Z,9.60
2022-11-25T12:42:53.042Z,9.70
2022-11-25T12:45:26.645Z,9.70
2022-11-25T12:47:53.685Z,9.80
2022-11-25T12:50:42.796Z,9.80
2022-11-25T12:53:14.699Z,9.80
2022-11-25T12:55:42.243Z,9.80
2022-11-25T12:58:33.045Z,9.90
2022-11-25T13:01:34.486Z,10.00
2022-11-25T13:04:24.969Z,10.10
2022-11-25T13:07:19.150Z,10.20
2022-11-25T13:10:15.135Z,10.40
2022-11-25T13:12:54.012Z,10.40
2022-11-25T13:15:44.228Z,10.40
2022-11-25T13:18:24.971Z,10.40
2022-11-25T13:20:54.202Z,10.30
2022-11-25T13:23:28.744Z,10.20
2022-11-25T13:26:32.391Z,10.20
2022-11-25T13:29:00.790Z,10.10
2022-11-25T13:31:58.687Z,10.00
2022-11-25T13:34:32.839Z,10.00
2022-11-25T13:37:36.621Z,9.90
2022-11-25T13:40:30.584Z,10.00
2022-11-25T13:43:00.354Z,10.10
2022-11-25T13:45:42.847Z,10.20
2022-11-25T13:48:15.151Z,10.20
2022-11-25T13:51:09.616Z,10.20
2022-11-25T13:53:35.698Z,10.20
2022-11-25T13:56:20.967Z,10.20
2022-11-25T13:59:10.671Z,10.20
2022-11-25T14:02:18.014Z,10.10
2022-11-25T14:05:07.807Z,10.10
2022-11-25T14:08:10.256Z,10.10
2022-11-25T14:10:55.813Z,10.00
2022-11-25T14:13:28.414Z,10.00
2022-11-25T14:16:07.188Z,9.90
2022-11-25T14:19:28.114Z,9.90
2022-11-25T14:21:59.803Z,10.00
2022-11-25T14:24:36.073Z,9.90
2022-11-25T14:27:04.552Z,9.90
2022-11-25T14:29:45.246Z,10.00
2022-11-25T14:32:20.091Z,9.90
2022-11-25T14:34:56.550Z,9.90
2022-11-25T14:37:44.153Z,10.00
2022-11-25T14:40:44.226Z,9.90
2022-11-25T14:43:25.019Z,9.90
2022-11-25T14:46:10.768Z,9.80
2022-11-25T14:48:38.509Z,9.80
2022-11-25T14:51:07.630Z,9.70
2022-11-25T14:53:46.005Z,9.80
2022-11-25T14:56:16.693Z,9.80
2022-11-25T14:58:49.035Z,9.80
2022-11-25T15:01:20.505Z,9.80
2022-11-25T15:03:48.970Z,9.80
2022-11-25T15:06:19.771Z,9.80
2022-11-25T15:08:55.390Z,9.70
2022-11-25T15:11:26.069Z,9.70
2022-11-25T15:14:05.024Z,9.70
2022-11-25T15:16:41.376Z,9.70
2022-11-25T15:19:18.131Z,9.50
2022-11-25T15:22:15.023Z,9.30
2022-11-25T15:24:42.965Z,9.30
2022-11-25T15:27:29.287Z,9.10
2022-11-25T15:29:57.350Z,9.00
2022-11-25T15:32:30.836Z,8.80
2022-11-25T15:35:00.941Z,8.70
2022-11-25T15:37:28.774Z,8.60
2022-11-25T15:40:32.642Z,8.60
2022-11-25T15:43:02.353Z,8.60
2022-11-25T15:45:45.833Z,8.50
2022-11-25T15:48:30.766Z,8.40
2022-11-25T15:51:04.730Z,8.40
2022-11-25T15:53:37.755Z,8.30
2022-11-25T15:56:06.663Z,8.30
2022-11-25T15:58:33.589Z,8.20
2022-11-25T16:01:07.347Z,8.20
2022-11-25T16:03:35.425Z,8.10
2022-11-25T16:06:17.806Z,8.10
2022-11-25T16:08:53.529Z,8.10
2022-11-25T16:11:22.901Z,8.10
2022-11-25T16:13:51.248Z,8.10
2022-11-25T16:16:31.200Z,8.10
2022-11-25T16:19:10.142Z,8.10
2022-11-25T16:21:36.803Z,8.10
2022-11-25T16:24:06.556Z,8.10
2022-11-25T16:27:00.667Z,8.10
2022-11-25T16:29:31.944Z,8.10
2022-11-25T16:32:00.014Z,8.00
2022-11-25T16:34:27.706Z,8.10
2022-11-25T16:36:54.510Z,8.00
2022-11-25T16:39:21.263Z,8.00
2022-11-25T16:41:58.848Z,7.90
2022-11-25T16:44:26.908Z,7.80
2022-11-25T16:46:54.397Z,7.80
2022-11-25T16:49:22.553Z,7.80
2022-11-25T16:51:53.358Z,7.70
2022-11-25T16:54:21.802Z,7.70
2022-11-25T16:56:51.457Z,7.70
2022-11-25T16:59:29.896Z,7.70
2022-11-25T17:01:57.060Z,7.80
2022-11-25T17:04:23.936Z,7.80
2022-11-25T17:07:24.263Z,7.80
2022-11-25T17:09:38.205Z,7.80
2022-11-25T17:12:07.067Z,7.80
2022-11-25T17:14:36.112Z,7.80
2022-11-25T17:17:07.070Z,7.80
2022-11-25T17:19:33.861Z,7.80
2022-11-25T17:22:00.733Z,7.80
2022-11-25T17:24:28.108Z,7.80
2022-11-25T17:27:01.315Z,7.70
2022-11-25T17:29:37.441Z,7.70
2022-11-25T17:32:05.117Z,7.60
2022-11-25T17:34:37.854Z,7.50
2022-11-25T17:37:13.226Z,7.50
2022-11-25T17:39:40.120Z,7.40
2022-11-25T17:42:07.004Z,7.40
2022-11-25T17:44:33.974Z,7.40
2022-11-25T17:47:00.714Z,7.30
2022-11-25T17:49:27.558Z,7.30
2022-11-25T17:52:01.805Z,7.30
2022-11-25T17:54:28.634Z,7.30
2022-11-25T17:56:55.846Z,7.30
2022-11-25T17:59:35.870Z,7.30
2022-11-25T18:02:30.884Z,7.30
2022-11-25T18:05:41.247Z,7.20
2022-11-25T18:08:25.008Z,7.20
2022-11-25T18:10:54.411Z,7.30
2022-11-25T18:13:21.650Z,7.20
2022-11-25T18:15:48.600Z,7.30
2022-11-25T18:18:25.346Z,7.30
2022-11-25T18:20:53.122Z,7.30
2022-11-25T18:23:19.856Z,7.30
2022-11-25T18:25:47.201Z,7.20
2022-11-25T18:28:20.551Z,7.20
2022-11-25T18:30:49.128Z,7.10
2022-11-25T18:33:18.784Z,7.00
2022-11-25T18:35:46.176Z,7.00
2022-11-25T18:38:13.185Z,6.90
2022-11-25T18:40:42.455Z,6.90
2022-11-25T18:43:17.930Z,6.80
2022-11-25T18:45:45.827Z,6.80
2022-11-25T18:48:18.792Z,6.70
2022-11-25T18:50:46.905Z,6.70
2022-11-25T18:53:14.632Z,6.60
2022-11-25T18:55:42.024Z,6.60
2022-11-25T18:58:20.793Z,6.60
2022-11-25T19:00:48.831Z,6.50
2022-11-25T19:03:24.403Z,6.60
2022-11-25T19:05:54.188Z,6.60
2022-11-25T19:08:21.434Z,6.60
2022-11-25T19:10:49.454Z,6.70
2022-11-25T19:13:30.520Z,6.70
2022-11-25T19:16:05.413Z,6.70
2022-11-25T19:18:32.435Z,6.80
2022-11-25T19:20:59.140Z,6.90
2022-11-25T19:23:28.022Z,6.90
2022-11-25T19:26:00.822Z,7.00
2022-11-25T19:28:29.634Z,7.00
2022-11-25T19:31:00.800Z,7.10
2022-11-25T19:33:32.755Z,7.10
2022-11-25T19:35:59.691Z,7.10
2022-11-25T19:38:26.339Z,7.20
2022-11-25T19:40:54.731Z,7.20
2022-11-25T19:43:22.644Z,7.20
2022-11-25T19:45:50.225Z,7.20
2022-11-25T19:48:19.597Z,7.20
2022-11-25T19:50:48.672Z,7.20
2022-11-25T19:53:18.888Z,7.20
2022-11-25T19:55:46.066Z,7.30
2022-11-25T19:58:13.694Z,7.30
2022-11-25T20:00:42.601Z,7.30
2022-11-25T20:03:18.804Z,7.30
2022-11-25T20:05:46.268Z,7.40
2022-11-25T20:08:24.952Z,7.40
2022-11-25T20:10:52.884Z,7.40
2022-11-25T20:13:20.765Z,7.50
2022-11-25T20:15:47.544Z,7.50
2022-11-25T20:18:18.360Z,7.50
2022-11-25T20:20:47.717Z,7.50
2022-11-25T20:23:43.326Z,7.50
2022-11-25T20:26:36.018Z,7.50
2022-11-25T20:29:15.700Z,7.50
2022-11-25T20:31:42.531Z,7.60
2022-11-25T20:34:09.259Z,7.50
2022-11-25T20:36:36.324Z,7.50
2022-11-25T20:39:04.062Z,7.60
2022-11-25T20:41:31.562Z,7.60
2022-11-25T20:43:59.403Z,7.60
2022-11-25T20:46:31.209Z,7.60
2022-11-25T20:49:19.189Z,7.60
2022-11-25T20:51:46.067Z,7.60
2022-11-25T20:54:14.202Z,7.60
2022-11-25T20:56:40.961Z,7.70
2022-11-25T20:59:19.235Z,7.70
2022-11-25T21:01:46.274Z,7.70
2022-11-25T21:04:13.095Z,7.70
2022-11-25T21:06:41.324Z,7.70
2022-11-25T21:09:20.491Z,7.70
2022-11-25T21:11:47.864Z,7.70
2022-11-25T21:14:17.820Z,7.70
2022-11-25T21:16:45.086Z,7.70
2022-11-25T21:19:12.013Z,7.80
2022-11-25T21:21:41.437Z,7.80
2022-11-25T21:24:26.967Z,7.70
2022-11-25T21:26:55.050Z,7.80
2022-11-25T21:29:21.875Z,7.80
2022-11-25T21:31:48.907Z,7.70
2022-11-25T21:34:15.974Z,7.80
2022-11-25T21:36:45.885Z,7.80
2022-11-25T21:39:30.948Z,7.70
2022-11-25T21:42:02.364Z,7.70
2022-11-25T21:44:37.319Z,7.70
2022-11-25T21:47:18.098Z,7.70
2022-11-25T21:49:45.819Z,7.70
2022-11-25T21:52:12.957Z,7.70
2022-11-25T21:54:40.615Z,7.70
2022-11-25T21:57:19.895Z,7.70
2022-11-25T21:59:47.571Z,7.70
2022-11-25T22:02:17.838Z,7.60
2022-11-25T22:04:45.162Z,7.60
2022-11-25T22:07:11.883Z,7.50
2022-11-25T22:09:39.349Z,7.50
2022-11-25T22:12:06.781Z,7.50
2022-11-25T22:14:37.766Z,7.50
2022-11-25T22:17:10.268Z,7.40
2022-11-25T22:19:36.983Z,7.30
2022-11-25T22:22:03.947Z,7.30
2022-11-25T22:24:33.240Z,7.20
2022-11-25T22:27:00.034Z,7.10
2022-11-25T22:29:32.761Z,7.00
2022-11-25T22:31:59.534Z,7.00
2022-11-25T22:34:26.333Z,6.90
2022-11-25T22:36:53.219Z,6.80
2022-11-25T22:39:25.097Z,6.80
2022-11-25T22:41:55.150Z,6.70
2022-11-25T22:44:34.456Z,6.70
2022-11-25T22:47:01.681Z,6.50
2022-11-25T22:49:44.142Z,6.50
2022-11-25T22:52:28.726Z,6.40
2022-11-25T22:54:59.324Z,6.40
2022-11-25T22:57:26.128Z,6.30
2022-11-25T22:59:52.840Z,6.20
2022-11-25T23:02:23.875Z,6.20
2022-11-25T23:04:55.489Z,6.20
2022-11-25T23:07:23.230Z,6.10
2022-11-25T23:09:50.599Z,6.00
2022-11-25T23:12:17.708Z,5.90
2022-11-25T23:14:44.596Z,5.90
2022-11-25T23:17:25.065Z,5.90
2022-11-25T23:19:52.184Z,5.80
2022-11-25T23:22:20.030Z,5.70
2022-11-25T23:24:48.317Z,5.70
2022-11-25T23:27:16.260Z,5.70
2022-11-25T23:29:43.148Z,5.70
2022-11-25T23:32:19.548Z,5.60
2022-11-25T23:34:49.898Z,5.70
2022-11-25T23:37:16.634Z,5.60
2022-11-25T23:39:49.172Z,5.50
2022-11-25T23:42:20.444Z,5.50
2022-11-25T23:44:47.192Z,5.50
2022-11-25T23:47:20.618Z,5.40
2022-11-25T23:49:50.437Z,5.40
2022-11-25T23:52:22.146Z,5.40
2022-11-25T23:54:49.765Z,5.30
2022-11-25T23:57:18.481Z,5.30
2022-11-25T23:59:46.648Z,5.30
